Terminal Aerodrome Forecast
Issued by NWS Tuscon, AZ

Home | Current Version | Previous Version | Text Only | Print | Product List | Glossary On
Versions: 1 2 3 4 5 6 7 8 9 10 11
631
FTUS45 KTWC 260520
TAFDUG
TAF
KDUG 260520Z 2606/2706 26014G22KT P6SM SCT250
     FM261000 33008KT P6SM FEW250
     FM261900 29014G22KT P6SM FEW250=

USA.gov is the U.S. government's official web portal to all federal, state and local government web resources and services.